createdAt,value
2019-02-19T00:01:58.792Z,31.17
2019-02-19T00:04:30.455Z,32.77
2019-02-19T00:07:02.061Z,37.50
2019-02-19T00:09:33.606Z,35.37
2019-02-19T00:12:05.197Z,34.33
2019-02-19T00:14:36.700Z,36.53
2019-02-19T00:17:08.341Z,35.03
2019-02-19T00:19:39.934Z,36.57
2019-02-19T00:22:11.594Z,33.93
2019-02-19T00:24:43.169Z,33.07
2019-02-19T00:27:14.829Z,35.83
2019-02-19T00:29:46.349Z,33.73
2019-02-19T00:32:20.378Z,36.53
2019-02-19T00:34:54.952Z,34.60
2019-02-19T00:37:26.388Z,33.27
2019-02-19T00:39:58.001Z,30.63
2019-02-19T00:42:29.609Z,30.60
2019-02-19T00:45:01.149Z,30.77
2019-02-19T00:47:32.818Z,32.50
2019-02-19T00:50:04.398Z,32.93
2019-02-19T00:52:36.028Z,30.37
2019-02-19T00:55:08.417Z,30.33
2019-02-19T00:57:40.044Z,32.43
2019-02-19T01:00:13.733Z,32.07
2019-02-19T01:02:45.468Z,32.13
2019-02-19T01:05:17.203Z,30.63
2019-02-19T01:07:49.002Z,34.40
2019-02-19T01:10:20.526Z,32.57
2019-02-19T01:12:53.210Z,33.97
2019-02-19T01:15:25.703Z,34.87
2019-02-19T01:17:57.563Z,37.20
2019-02-19T01:20:29.298Z,35.97
2019-02-19T01:23:02.133Z,33.87
2019-02-19T01:25:33.779Z,33.67
2019-02-19T01:28:05.421Z,34.03
2019-02-19T01:30:36.948Z,34.83
2019-02-19T01:33:10.389Z,33.50
2019-02-19T01:35:41.928Z,33.90
2019-02-19T01:38:13.438Z,34.87
2019-02-19T01:40:45.038Z,32.87
2019-02-19T01:43:16.633Z,34.73
2019-02-19T01:45:48.250Z,35.50
2019-02-19T01:48:19.841Z,37.83
2019-02-19T01:50:51.445Z,36.53
2019-02-19T01:53:26.149Z,34.33
2019-02-19T01:55:57.635Z,36.00
2019-02-19T01:58:30.703Z,36.10
2019-02-19T02:01:02.240Z,41.77
2019-02-19T02:03:33.741Z,40.07
2019-02-19T02:06:05.312Z,39.50
2019-02-19T02:08:36.940Z,41.87
2019-02-19T02:11:11.790Z,53.87
2019-02-19T02:13:42.976Z,43.10
2019-02-19T02:16:16.756Z,48.47
2019-02-19T02:18:48.426Z,41.60
2019-02-19T02:21:19.982Z,42.20
2019-02-19T02:23:51.602Z,48.93
2019-02-19T02:26:23.094Z,47.73
2019-02-19T02:28:54.740Z,53.70
2019-02-19T02:31:26.274Z,49.87
2019-02-19T02:33:57.844Z,51.80
2019-02-19T02:36:29.372Z,40.07
2019-02-19T02:39:00.968Z,52.43
2019-02-19T02:41:32.712Z,52.73
2019-02-19T02:44:04.344Z,58.73
2019-02-19T02:46:35.911Z,51.37
2019-02-19T02:49:07.473Z,66.23
2019-02-19T02:51:39.173Z,54.60
2019-02-19T02:54:11.844Z,61.90
2019-02-19T02:56:43.465Z,70.03
2019-02-19T02:59:15.006Z,62.23
2019-02-19T03:01:46.644Z,81.50
2019-02-19T03:04:18.185Z,56.90
2019-02-19T03:06:54.779Z,64.23
2019-02-19T03:09:26.503Z,65.33
2019-02-19T03:11:58.152Z,87.80
2019-02-19T03:14:29.750Z,74.93
2019-02-19T03:17:01.405Z,63.93
2019-02-19T03:19:33.046Z,64.93
2019-02-19T03:22:04.827Z,53.00
2019-02-19T03:24:36.423Z,69.00
2019-02-19T03:27:07.944Z,64.43
2019-02-19T03:29:39.684Z,65.07
2019-02-19T03:32:11.418Z,66.50
2019-02-19T03:34:42.977Z,58.93
2019-02-19T03:37:14.691Z,69.30
2019-02-19T03:39:47.917Z,64.43
2019-02-19T03:42:19.907Z,62.27
2019-02-19T03:44:51.381Z,72.97
2019-02-19T03:47:24.869Z,47.70
2019-02-19T03:49:56.399Z,76.10
2019-02-19T03:52:28.102Z,71.23
2019-02-19T03:54:59.721Z,62.63
2019-02-19T03:57:31.466Z,61.70
2019-02-19T04:00:03.168Z,66.47
2019-02-19T04:02:35.971Z,66.77
2019-02-19T04:05:07.701Z,51.80
2019-02-19T04:07:39.317Z,64.00
2019-02-19T04:10:10.846Z,55.97
2019-02-19T04:12:42.455Z,58.53
2019-02-19T04:15:15.007Z,64.00
2019-02-19T04:17:46.628Z,52.13
2019-02-19T04:20:18.161Z,55.33
2019-02-19T04:22:49.607Z,54.70
2019-02-19T04:25:21.154Z,58.17
2019-02-19T04:27:52.811Z,49.03
2019-02-19T04:30:24.420Z,49.23
2019-02-19T04:32:57.835Z,53.60
2019-02-19T04:35:29.436Z,66.80
2019-02-19T04:38:01.275Z,52.30
2019-02-19T04:40:32.799Z,48.97
2019-02-19T04:43:05.582Z,45.50
2019-02-19T04:45:37.144Z,46.57
2019-02-19T04:48:08.736Z,50.10
2019-02-19T04:50:40.335Z,55.07
2019-02-19T04:53:12.039Z,59.17
2019-02-19T04:55:43.625Z,49.13
2019-02-19T04:58:15.155Z,54.70
2019-02-19T05:00:48.929Z,58.43
2019-02-19T05:03:20.507Z,59.40
2019-02-19T05:05:54.537Z,52.90
2019-02-19T05:08:27.415Z,56.13
2019-02-19T05:10:59.364Z,47.23
2019-02-19T05:13:30.951Z,60.73
2019-02-19T05:16:02.613Z,65.40
2019-02-19T05:18:34.225Z,51.60
2019-02-19T05:21:07.299Z,48.67
2019-02-19T05:23:38.914Z,47.27
2019-02-19T05:26:10.514Z,45.03
2019-02-19T05:28:42.168Z,49.77
2019-02-19T05:31:13.840Z,49.23
2019-02-19T05:33:45.484Z,50.70
2019-02-19T05:36:19.522Z,69.27
2019-02-19T05:38:52.378Z,67.20
2019-02-19T05:41:24.072Z,51.00
2019-02-19T05:43:55.696Z,53.13
2019-02-19T05:46:27.288Z,48.23
2019-02-19T05:48:58.962Z,49.20
2019-02-19T05:51:30.589Z,54.43
2019-02-19T05:54:02.202Z,48.37
2019-02-19T05:56:33.669Z,43.57
2019-02-19T05:59:05.245Z,45.77
2019-02-19T06:01:36.748Z,47.97
2019-02-19T06:04:08.438Z,48.10
2019-02-19T06:06:39.951Z,48.83
2019-02-19T06:09:11.509Z,46.67
2019-02-19T06:11:44.384Z,44.10
2019-02-19T06:14:17.186Z,42.17
2019-02-19T06:16:48.828Z,41.83
2019-02-19T06:19:20.441Z,41.17
2019-02-19T06:21:51.912Z,40.80
2019-02-19T06:24:23.480Z,39.60
2019-02-19T06:26:55.044Z,45.00
2019-02-19T06:29:26.626Z,41.93
2019-02-19T06:31:58.163Z,43.00
2019-02-19T06:34:31.291Z,43.03
2019-02-19T06:37:03.042Z,42.60
2019-02-19T06:39:34.603Z,44.57
2019-02-19T06:42:06.109Z,42.77
2019-02-19T06:44:37.903Z,38.50
2019-02-19T06:47:09.439Z,42.43
2019-02-19T06:49:40.972Z,43.43
2019-02-19T06:52:14.168Z,41.37
2019-02-19T06:54:45.679Z,38.83
2019-02-19T06:57:17.393Z,39.57
2019-02-19T06:59:48.940Z,37.43
2019-02-19T07:02:44.405Z,38.70
2019-02-19T07:05:21.322Z,36.93
2019-02-19T07:07:56.608Z,37.87
2019-02-19T07:10:28.184Z,35.23
2019-02-19T07:12:59.717Z,34.53
2019-02-19T07:15:31.359Z,36.97
2019-02-19T07:18:02.951Z,35.17
2019-02-19T07:20:34.657Z,35.50
2019-02-19T07:23:06.353Z,34.47
2019-02-19T07:25:37.950Z,30.50
2019-02-19T07:28:09.557Z,30.57
2019-02-19T07:30:41.407Z,26.63
2019-02-19T07:33:12.967Z,27.27
2019-02-19T07:35:44.621Z,26.57
2019-02-19T07:38:16.321Z,24.63
2019-02-19T07:40:47.909Z,26.40
2019-02-19T07:43:19.374Z,20.10
2019-02-19T07:45:52.352Z,22.63
2019-02-19T07:48:23.992Z,22.07
2019-02-19T07:50:55.637Z,23.33
2019-02-19T07:53:27.075Z,22.67
2019-02-19T07:55:58.693Z,25.00
2019-02-19T07:58:30.400Z,24.83
2019-02-19T08:01:02.111Z,21.83
2019-02-19T08:03:33.642Z,25.47
2019-02-19T08:06:07.147Z,22.07
2019-02-19T08:08:38.709Z,27.17
2019-02-19T08:11:10.416Z,25.40
2019-02-19T08:13:42.065Z,24.30
2019-02-19T08:16:13.813Z,24.43
2019-02-19T08:18:45.453Z,20.50
2019-02-19T08:21:17.211Z,19.77
2019-02-19T08:23:53.322Z,22.37
2019-02-19T08:26:25.056Z,21.73
2019-02-19T08:29:06.950Z,20.33
2019-02-19T08:31:29.955Z,18.73
2019-02-19T08:34:01.630Z,21.53
2019-02-19T08:36:33.199Z,19.30
2019-02-19T08:39:05.882Z,20.73
2019-02-19T08:41:37.421Z,20.77
2019-02-19T08:44:12.102Z,17.77
2019-02-19T08:46:43.822Z,18.50
2019-02-19T08:49:15.463Z,18.53
2019-02-19T08:51:55.731Z,18.13
2019-02-19T08:54:20.568Z,19.73
2019-02-19T08:56:52.179Z,18.07
2019-02-19T08:59:23.834Z,21.07
2019-02-19T09:01:55.360Z,18.73
2019-02-19T09:04:26.998Z,16.97
2019-02-19T09:06:59.577Z,18.27
2019-02-19T09:09:31.268Z,17.50
2019-02-19T09:12:02.977Z,20.37
2019-02-19T09:14:34.672Z,19.53
2019-02-19T09:17:06.215Z,18.77
2019-02-19T09:19:37.927Z,19.90
2019-02-19T09:22:09.694Z,16.93
2019-02-19T09:24:41.351Z,17.13
2019-02-19T09:27:14.989Z,17.10
2019-02-19T09:29:47.609Z,17.77
2019-02-19T09:32:22.243Z,16.13
2019-02-19T09:34:53.813Z,16.83
2019-02-19T09:37:27.065Z,16.93
2019-02-19T09:39:58.595Z,17.47
2019-02-19T09:42:30.241Z,14.83
2019-02-19T09:45:01.846Z,18.17
2019-02-19T09:47:33.801Z,18.37
2019-02-19T09:50:05.529Z,16.40
2019-02-19T09:52:38.321Z,14.93
2019-02-19T09:55:11.293Z,18.23
2019-02-19T09:57:42.874Z,17.23
2019-02-19T10:00:14.945Z,18.27
2019-02-19T10:02:46.559Z,16.33
2019-02-19T10:05:18.241Z,17.10
2019-02-19T10:07:49.828Z,17.73
2019-02-19T10:10:21.461Z,19.17
2019-02-19T10:12:53.159Z,16.77
2019-02-19T10:15:26.277Z,17.97
2019-02-19T10:17:57.975Z,19.97
2019-02-19T10:20:29.481Z,19.63
2019-02-19T10:23:01.185Z,18.43
2019-02-19T10:25:32.693Z,17.63
2019-02-19T10:28:04.294Z,18.70
2019-02-19T10:30:35.882Z,17.57
2019-02-19T10:33:07.550Z,18.47
2019-02-19T10:35:39.062Z,16.30
2019-02-19T10:38:10.633Z,18.63
2019-02-19T10:40:42.233Z,19.43
2019-02-19T10:43:13.895Z,20.07
2019-02-19T10:45:45.453Z,19.77
2019-02-19T10:48:19.296Z,18.00
2019-02-19T10:50:50.391Z,17.77
2019-02-19T10:53:22.161Z,18.97
2019-02-19T10:55:53.796Z,20.67
2019-02-19T10:58:25.530Z,18.00
2019-02-19T11:00:57.376Z,21.03
2019-02-19T11:03:28.983Z,19.80
2019-02-19T11:06:00.584Z,21.20
2019-02-19T11:08:32.205Z,19.03
2019-02-19T11:11:03.794Z,23.80
2019-02-19T11:13:37.497Z,21.67
2019-02-19T11:16:08.728Z,20.07
2019-02-19T11:18:40.428Z,20.73
2019-02-19T11:21:19.298Z,20.50
2019-02-19T11:23:45.462Z,21.20
2019-02-19T11:26:17.069Z,19.17
2019-02-19T11:28:51.694Z,19.03
2019-02-19T11:31:23.238Z,18.00
2019-02-19T11:33:54.847Z,20.07
2019-02-19T11:36:26.393Z,20.53
2019-02-19T11:38:58.011Z,20.83
2019-02-19T11:41:29.600Z,20.20
2019-02-19T11:44:01.155Z,20.50
2019-02-19T11:46:32.728Z,20.77
2019-02-19T11:49:04.642Z,20.47
2019-02-19T11:51:36.258Z,20.80
2019-02-19T11:54:07.819Z,19.63
2019-02-19T11:56:39.450Z,20.40
2019-02-19T11:59:11.008Z,18.27
2019-02-19T12:01:44.805Z,19.70
2019-02-19T12:04:16.364Z,19.97
2019-02-19T12:06:49.287Z,18.93
2019-02-19T12:09:23.254Z,20.00
2019-02-19T12:11:54.815Z,31.50
2019-02-19T12:14:26.392Z,28.03
2019-02-19T12:16:58.105Z,22.03
2019-02-19T12:19:29.697Z,19.70
2019-02-19T12:22:01.347Z,21.87
2019-02-19T12:24:33.053Z,22.17
2019-02-19T12:27:04.644Z,20.77
2019-02-19T12:29:36.403Z,22.17
2019-02-19T12:32:08.193Z,21.30
2019-02-19T12:34:39.924Z,23.43
2019-02-19T12:37:11.592Z,38.77
2019-02-19T12:39:43.200Z,23.33
2019-02-19T12:42:14.722Z,24.23
2019-02-19T12:44:46.347Z,25.00
2019-02-19T12:47:18.055Z,23.13
2019-02-19T12:49:49.742Z,25.17
2019-02-19T12:52:21.473Z,25.63
2019-02-19T12:54:53.185Z,25.20
2019-02-19T12:57:24.780Z,24.03
2019-02-19T12:59:56.885Z,25.33
2019-02-19T13:02:28.689Z,24.43
2019-02-19T13:05:00.402Z,25.37
2019-02-19T13:07:32.128Z,24.57
2019-02-19T13:10:03.880Z,23.33
2019-02-19T13:12:35.486Z,26.93
2019-02-19T13:15:08.541Z,25.77
2019-02-19T13:17:40.181Z,25.40
2019-02-19T13:20:13.333Z,25.80
2019-02-19T13:22:44.882Z,26.53
2019-02-19T13:25:16.662Z,24.40
2019-02-19T13:27:48.284Z,26.40
2019-02-19T13:30:20.060Z,24.83
2019-02-19T13:32:53.163Z,32.70
2019-02-19T13:35:24.640Z,25.53
2019-02-19T13:37:56.280Z,27.63
2019-02-19T13:40:27.794Z,24.93
2019-02-19T13:42:59.291Z,27.07
2019-02-19T13:45:30.950Z,26.40
2019-02-19T13:48:05.899Z,24.90
2019-02-19T13:50:36.043Z,24.83
2019-02-19T13:53:16.839Z,27.73
2019-02-19T13:55:51.163Z,28.17
2019-02-19T13:58:25.695Z,28.73
2019-02-19T14:00:57.318Z,30.80
2019-02-19T14:03:28.988Z,30.87
2019-02-19T14:06:00.579Z,30.57
2019-02-19T14:08:32.245Z,31.67
2019-02-19T14:11:03.829Z,31.83
2019-02-19T14:13:35.521Z,28.80
2019-02-19T14:16:29.713Z,29.13
2019-02-19T14:19:09.243Z,29.37
2019-02-19T14:21:48.204Z,30.93
2019-02-19T14:24:38.539Z,28.00
2019-02-19T14:27:27.378Z,29.87
2019-02-19T14:30:20.503Z,35.50
2019-02-19T14:33:13.458Z,32.13
2019-02-19T14:36:02.608Z,31.13
2019-02-19T14:39:05.037Z,31.00
2019-02-19T14:42:08.886Z,29.07
2019-02-19T14:45:00.348Z,34.23
2019-02-19T14:48:01.595Z,28.47
2019-02-19T14:50:52.866Z,29.67
2019-02-19T14:53:57.862Z,30.63
2019-02-19T14:56:47.165Z,30.00
2019-02-19T14:59:36.338Z,28.13
2019-02-19T15:02:29.396Z,27.57
2019-02-19T15:05:30.212Z,29.67
2019-02-19T15:08:19.114Z,30.03
2019-02-19T15:11:08.166Z,32.20
2019-02-19T15:13:58.219Z,30.20
2019-02-19T15:16:57.635Z,27.33
2019-02-19T15:19:47.923Z,28.27
2019-02-19T15:22:38.648Z,26.20
2019-02-19T15:25:27.312Z,27.50
2019-02-19T15:28:21.756Z,28.07
2019-02-19T15:31:32.850Z,25.50
2019-02-19T15:34:23.287Z,26.90
2019-02-19T15:37:03.200Z,27.30
2019-02-19T15:39:53.600Z,27.73
2019-02-19T15:42:42.820Z,31.23
2019-02-19T15:45:34.654Z,30.30
2019-02-19T15:48:23.755Z,30.73
2019-02-19T15:51:07.044Z,28.73
2019-02-19T15:54:01.614Z,26.73
2019-02-19T15:56:51.956Z,34.63
2019-02-19T15:59:46.292Z,26.07
2019-02-19T16:02:35.656Z,28.30
2019-02-19T16:05:26.102Z,31.10
2019-02-19T16:08:22.635Z,30.40
2019-02-19T16:11:01.843Z,29.23
2019-02-19T16:13:52.425Z,28.50
2019-02-19T16:16:54.782Z,24.97
2019-02-19T16:19:37.642Z,26.57
2019-02-19T16:22:19.171Z,26.63
2019-02-19T16:25:01.698Z,23.30
2019-02-19T16:27:41.473Z,22.93
2019-02-19T16:30:34.905Z,23.07
2019-02-19T16:33:34.484Z,25.73
2019-02-19T16:36:30.743Z,24.23
2019-02-19T16:39:23.852Z,22.47
2019-02-19T16:42:02.966Z,25.17
2019-02-19T16:44:45.614Z,26.43
2019-02-19T16:47:42.162Z,24.93
2019-02-19T16:50:29.800Z,26.97
2019-02-19T16:53:19.023Z,27.53
2019-02-19T16:56:27.599Z,29.10
2019-02-19T16:59:20.600Z,25.97
2019-02-19T17:02:16.757Z,25.20
2019-02-19T17:05:06.619Z,23.40
2019-02-19T17:07:43.803Z,26.87
2019-02-19T17:10:39.796Z,23.50
2019-02-19T17:13:30.402Z,29.23
2019-02-19T17:16:26.807Z,29.90
2019-02-19T17:19:17.181Z,28.90
2019-02-19T17:21:55.043Z,29.23
2019-02-19T17:24:42.934Z,24.53
2019-02-19T17:27:38.772Z,24.93
2019-02-19T17:30:27.253Z,28.97
2019-02-19T17:33:26.455Z,26.17
2019-02-19T17:36:05.567Z,28.67
2019-02-19T17:38:49.907Z,26.13
2019-02-19T17:41:42.963Z,30.10
2019-02-19T17:44:22.230Z,27.73
2019-02-19T17:47:18.802Z,28.40
2019-02-19T17:50:07.674Z,28.60
2019-02-19T17:53:02.144Z,28.47
2019-02-19T17:55:50.619Z,27.87
2019-02-19T17:58:37.034Z,28.70
2019-02-19T18:01:18.116Z,27.27
2019-02-19T18:04:07.189Z,30.67
2019-02-19T18:07:05.960Z,27.30
2019-02-19T18:10:02.039Z,27.73
2019-02-19T18:12:51.033Z,26.73
2019-02-19T18:15:41.342Z,28.47
2019-02-19T18:18:24.672Z,29.00
2019-02-19T18:20:56.384Z,27.27
2019-02-19T18:23:28.138Z,27.53
2019-02-19T18:25:59.841Z,28.17
2019-02-19T18:28:31.355Z,27.57
2019-02-19T18:31:03.124Z,25.00
2019-02-19T18:33:35.628Z,27.67
2019-02-19T18:36:07.333Z,25.87
2019-02-19T18:38:38.998Z,25.80
2019-02-19T18:41:10.757Z,26.93
2019-02-19T18:43:42.268Z,28.17
2019-02-19T18:46:13.887Z,27.60
2019-02-19T18:48:45.427Z,25.93
2019-02-19T18:51:16.998Z,24.63
2019-02-19T18:53:51.347Z,27.30
2019-02-19T18:56:23.045Z,32.43
2019-02-19T18:58:54.764Z,27.47
2019-02-19T19:01:26.535Z,26.33
2019-02-19T19:03:58.298Z,31.00
2019-02-19T19:06:30.048Z,26.83
2019-02-19T19:09:01.890Z,28.90
2019-02-19T19:11:34.488Z,25.50
2019-02-19T19:14:06.068Z,27.00
2019-02-19T19:16:37.743Z,23.93
2019-02-19T19:19:09.352Z,22.03
2019-02-19T19:21:40.862Z,20.50
2019-02-19T19:24:13.760Z,26.03
2019-02-19T19:26:45.290Z,40.80
2019-02-19T19:29:18.039Z,25.60
2019-02-19T19:31:49.591Z,28.67
2019-02-19T19:34:21.384Z,25.27
2019-02-19T19:36:53.212Z,25.97
2019-02-19T19:39:26.097Z,25.27
2019-02-19T19:41:57.878Z,29.10
2019-02-19T19:44:29.611Z,26.47
2019-02-19T19:47:01.144Z,24.90
2019-02-19T19:49:32.952Z,28.50
2019-02-19T19:52:04.673Z,28.67
2019-02-19T19:54:36.438Z,25.43
2019-02-19T19:57:13.911Z,28.73
2019-02-19T19:59:46.531Z,29.07
2019-02-19T20:02:19.975Z,28.60
2019-02-19T20:04:51.459Z,25.77
2019-02-19T20:07:23.146Z,27.23
2019-02-19T20:09:54.778Z,24.80
2019-02-19T20:12:26.355Z,27.30
2019-02-19T20:14:58.054Z,28.07
2019-02-19T20:17:30.357Z,27.00
2019-02-19T20:20:02.169Z,29.60
2019-02-19T20:22:34.423Z,24.13
2019-02-19T20:25:06.354Z,20.80
2019-02-19T20:27:38.021Z,25.20
2019-02-19T20:30:10.769Z,26.43
2019-02-19T20:32:42.335Z,29.23
2019-02-19T20:35:14.188Z,24.80
2019-02-19T20:37:53.771Z,24.77
2019-02-19T20:40:20.355Z,22.70
2019-02-19T20:42:55.113Z,21.87
2019-02-19T20:45:26.451Z,27.23
2019-02-19T20:47:59.795Z,23.87
2019-02-19T20:50:32.164Z,25.73
2019-02-19T20:53:04.002Z,26.47
2019-02-19T20:55:37.406Z,29.00
2019-02-19T20:58:11.048Z,26.63
2019-02-19T21:00:45.327Z,29.60
2019-02-19T21:03:16.975Z,27.07
2019-02-19T21:05:48.816Z,25.27
2019-02-19T21:08:20.418Z,25.70
2019-02-19T21:10:54.440Z,27.57
2019-02-19T21:13:27.041Z,28.13
2019-02-19T21:15:58.719Z,28.40
2019-02-19T21:18:30.517Z,27.37
2019-02-19T21:21:02.124Z,26.60
2019-02-19T21:23:33.859Z,28.67
2019-02-19T21:26:06.827Z,27.77
2019-02-19T21:28:38.509Z,27.03
2019-02-19T21:31:10.287Z,27.40
2019-02-19T21:33:41.932Z,27.67
2019-02-19T21:36:13.785Z,31.00
2019-02-19T21:38:47.024Z,31.63
2019-02-19T21:41:18.644Z,29.50
2019-02-19T21:43:51.645Z,29.10
2019-02-19T21:46:25.197Z,29.50
2019-02-19T21:48:56.931Z,30.63
2019-02-19T21:51:29.869Z,28.40
2019-02-19T21:54:01.622Z,30.93
2019-02-19T21:56:33.454Z,33.23
2019-02-19T21:59:06.410Z,31.80
2019-02-19T22:01:39.275Z,32.67
2019-02-19T22:04:10.987Z,36.30
2019-02-19T22:06:43.970Z,36.10
2019-02-19T22:09:15.706Z,35.53
2019-02-19T22:11:48.475Z,35.87
2019-02-19T22:14:21.200Z,35.27
2019-02-19T22:16:52.882Z,37.27
2019-02-19T22:19:26.203Z,37.00
2019-02-19T22:22:03.685Z,39.97
2019-02-19T22:24:36.455Z,30.93
2019-02-19T22:27:09.588Z,37.50
2019-02-19T22:29:41.640Z,39.40
2019-02-19T22:32:17.870Z,37.93
2019-02-19T22:34:49.567Z,41.63
2019-02-19T22:37:21.307Z,40.90
2019-02-19T22:39:53.019Z,36.10
2019-02-19T22:42:24.852Z,40.97
2019-02-19T22:44:56.376Z,43.23
2019-02-19T22:47:28.183Z,44.43
2019-02-19T22:49:59.838Z,39.67
2019-02-19T22:52:31.796Z,39.80
2019-02-19T22:55:34.090Z,46.73
2019-02-19T22:58:05.796Z,38.60
2019-02-19T23:01:05.800Z,43.00
2019-02-19T23:03:39.425Z,35.57
2019-02-19T23:06:11.136Z,33.97
2019-02-19T23:08:42.643Z,32.33
2019-02-19T23:11:14.341Z,29.20
2019-02-19T23:13:45.857Z,28.40
2019-02-19T23:16:20.340Z,26.00
2019-02-19T23:18:51.873Z,27.10
2019-02-19T23:21:23.521Z,26.30
2019-02-19T23:23:55.055Z,29.00
2019-02-19T23:26:26.612Z,27.60
2019-02-19T23:29:00.115Z,26.83
2019-02-19T23:31:31.932Z,23.23
2019-02-19T23:34:03.612Z,29.50
2019-02-19T23:36:45.793Z,26.80
2019-02-19T23:39:17.455Z,28.07
2019-02-19T23:41:49.172Z,26.70
2019-02-19T23:44:20.947Z,28.13
2019-02-19T23:46:55.551Z,28.00
2019-02-19T23:49:27.263Z,28.40
2019-02-19T23:51:58.927Z,27.23
2019-02-19T23:54:30.629Z,30.13
2019-02-19T23:57:04.411Z,31.60
2019-02-19T23:59:35.898Z,28.53
